sensor_id;sensor_type;location;lat;lon;timestamp;P1;durP1;ratioP1;P2;durP2;ratioP2
11008;SDS011;5557;51.670;7.788;2022-09-20T00:01:10;12.33;;;2.70;;
11008;SDS011;5557;51.670;7.788;2022-09-20T00:03:43;4.53;;;2.37;;
11008;SDS011;5557;51.670;7.788;2022-09-20T00:06:14;4.20;;;2.10;;
11008;SDS011;5557;51.670;7.788;2022-09-20T00:08:45;12.43;;;2.60;;
11008;SDS011;5557;51.670;7.788;2022-09-20T00:11:22;12.43;;;3.40;;
11008;SDS011;5557;51.670;7.788;2022-09-20T00:13:53;10.57;;;2.80;;
11008;SDS011;5557;51.670;7.788;2022-09-20T00:16:34;14.70;;;2.30;;
11008;SDS011;5557;51.670;7.788;2022-09-20T00:19:05;14.87;;;2.87;;
11008;SDS011;5557;51.670;7.788;2022-09-20T00:21:34;10.37;;;2.77;;
11008;SDS011;5557;51.670;7.788;2022-09-20T00:24:03;7.90;;;2.70;;
11008;SDS011;5557;51.670;7.788;2022-09-20T00:26:31;9.67;;;2.90;;
11008;SDS011;5557;51.670;7.788;2022-09-20T00:28:58;7.67;;;3.10;;
11008;SDS011;5557;51.670;7.788;2022-09-20T00:31:25;9.33;;;2.90;;
11008;SDS011;5557;51.670;7.788;2022-09-20T00:33:53;24.90;;;3.23;;
11008;SDS011;5557;51.670;7.788;2022-09-20T00:36:39;21.77;;;3.17;;
11008;SDS011;5557;51.670;7.788;2022-09-20T00:39:08;19.63;;;3.00;;
11008;SDS011;5557;51.670;7.788;2022-09-20T00:41:37;6.20;;;3.40;;
11008;SDS011;5557;51.670;7.788;2022-09-20T00:47:11;9.17;;;2.87;;
11008;SDS011;5557;51.670;7.788;2022-09-20T00:49:47;14.93;;;3.23;;
11008;SDS011;5557;51.670;7.788;2022-09-20T00:52:16;10.30;;;2.90;;
11008;SDS011;5557;51.670;7.788;2022-09-20T00:54:43;15.23;;;3.23;;
11008;SDS011;5557;51.670;7.788;2022-09-20T00:57:10;9.13;;;3.20;;
11008;SDS011;5557;51.670;7.788;2022-09-20T00:59:38;3.10;;;2.40;;
11008;SDS011;5557;51.670;7.788;2022-09-20T01:02:11;10.97;;;2.90;;
11008;SDS011;5557;51.670;7.788;2022-09-20T01:04:51;10.90;;;2.67;;
11008;SDS011;5557;51.670;7.788;2022-09-20T01:07:19;6.67;;;2.80;;
11008;SDS011;5557;51.670;7.788;2022-09-20T01:09:50;6.80;;;3.03;;
11008;SDS011;5557;51.670;7.788;2022-09-20T01:12:18;8.03;;;2.70;;
11008;SDS011;5557;51.670;7.788;2022-09-20T01:14:48;6.60;;;2.93;;
11008;SDS011;5557;51.670;7.788;2022-09-20T01:17:16;4.27;;;3.00;;
11008;SDS011;5557;51.670;7.788;2022-09-20T01:28:31;5.33;;;2.90;;
11008;SDS011;5557;51.670;7.788;2022-09-20T01:31:06;20.07;;;3.37;;
11008;SDS011;5557;51.670;7.788;2022-09-20T01:33:53;10.37;;;2.50;;
11008;SDS011;5557;51.670;7.788;2022-09-20T01:36:33;7.73;;;2.63;;
11008;SDS011;5557;51.670;7.788;2022-09-20T01:42:32;7.57;;;3.10;;
11008;SDS011;5557;51.670;7.788;2022-09-20T01:45:15;7.60;;;2.43;;
11008;SDS011;5557;51.670;7.788;2022-09-20T01:48:02;10.43;;;2.63;;
11008;SDS011;5557;51.670;7.788;2022-09-20T01:50:35;6.10;;;2.47;;
11008;SDS011;5557;51.670;7.788;2022-09-20T02:06:00;10.33;;;2.50;;
11008;SDS011;5557;51.670;7.788;2022-09-20T02:08:45;5.80;;;2.03;;
11008;SDS011;5557;51.670;7.788;2022-09-20T02:27:22;8.40;;;3.00;;
11008;SDS011;5557;51.670;7.788;2022-09-20T02:33:57;5.27;;;2.33;;
11008;SDS011;5557;51.670;7.788;2022-09-20T02:40:45;7.13;;;2.30;;
11008;SDS011;5557;51.670;7.788;2022-09-20T02:45:59;25.87;;;3.70;;
11008;SDS011;5557;51.670;7.788;2022-09-20T02:48:46;9.83;;;2.77;;
11008;SDS011;5557;51.670;7.788;2022-09-20T02:51:40;11.43;;;2.80;;
11008;SDS011;5557;51.670;7.788;2022-09-20T02:57:24;7.83;;;3.30;;
11008;SDS011;5557;51.670;7.788;2022-09-20T03:00:12;11.70;;;2.43;;
11008;SDS011;5557;51.670;7.788;2022-09-20T03:02:47;6.93;;;2.80;;
11008;SDS011;5557;51.670;7.788;2022-09-20T03:09:12;7.53;;;2.13;;
11008;SDS011;5557;51.670;7.788;2022-09-20T03:18:56;13.03;;;3.17;;
11008;SDS011;5557;51.670;7.788;2022-09-20T03:25:11;10.83;;;2.83;;
11008;SDS011;5557;51.670;7.788;2022-09-20T03:27:55;15.53;;;2.67;;
11008;SDS011;5557;51.670;7.788;2022-09-20T03:30:53;4.73;;;2.40;;
11008;SDS011;5557;51.670;7.788;2022-09-20T03:34:04;5.67;;;2.80;;
11008;SDS011;5557;51.670;7.788;2022-09-20T03:42:56;9.27;;;2.70;;
11008;SDS011;5557;51.670;7.788;2022-09-20T03:55:28;15.50;;;3.13;;
11008;SDS011;5557;51.670;7.788;2022-09-20T03:58:33;8.90;;;3.30;;
11008;SDS011;5557;51.670;7.788;2022-09-20T04:01:41;13.33;;;3.20;;
11008;SDS011;5557;51.670;7.788;2022-09-20T04:07:31;6.87;;;2.47;;
11008;SDS011;5557;51.670;7.788;2022-09-20T04:10:28;5.43;;;2.77;;
11008;SDS011;5557;51.670;7.788;2022-09-20T04:13:24;18.13;;;3.00;;
11008;SDS011;5557;51.670;7.788;2022-09-20T04:19:02;8.27;;;2.83;;
11008;SDS011;5557;51.670;7.788;2022-09-20T04:21:55;9.97;;;3.23;;
11008;SDS011;5557;51.670;7.788;2022-09-20T04:27:11;9.33;;;3.53;;
11008;SDS011;5557;51.670;7.788;2022-09-20T04:30:03;12.57;;;3.00;;
11008;SDS011;5557;51.670;7.788;2022-09-20T04:32:41;9.03;;;2.83;;
11008;SDS011;5557;51.670;7.788;2022-09-20T04:48:47;7.00;;;2.90;;
11008;SDS011;5557;51.670;7.788;2022-09-20T04:58:19;13.77;;;3.40;;
11008;SDS011;5557;51.670;7.788;2022-09-20T05:01:45;7.40;;;3.67;;
11008;SDS011;5557;51.670;7.788;2022-09-20T05:13:38;9.70;;;3.90;;
11008;SDS011;5557;51.670;7.788;2022-09-20T05:16:37;12.23;;;5.27;;
11008;SDS011;5557;51.670;7.788;2022-09-20T05:28:38;7.07;;;4.40;;
11008;SDS011;5557;51.670;7.788;2022-09-20T05:31:38;9.87;;;5.03;;
11008;SDS011;5557;51.670;7.788;2022-09-20T05:37:48;7.50;;;4.80;;
11008;SDS011;5557;51.670;7.788;2022-09-20T05:43:46;21.17;;;5.40;;
11008;SDS011;5557;51.670;7.788;2022-09-20T05:49:50;8.63;;;5.43;;
11008;SDS011;5557;51.670;7.788;2022-09-20T05:52:47;9.63;;;6.23;;
11008;SDS011;5557;51.670;7.788;2022-09-20T06:01:33;17.47;;;6.30;;
11008;SDS011;5557;51.670;7.788;2022-09-20T06:04:11;20.53;;;6.83;;
11008;SDS011;5557;51.670;7.788;2022-09-20T06:07:02;10.07;;;5.87;;
11008;SDS011;5557;51.670;7.788;2022-09-20T06:13:02;12.93;;;5.90;;
11008;SDS011;5557;51.670;7.788;2022-09-20T06:16:05;20.63;;;5.43;;
11008;SDS011;5557;51.670;7.788;2022-09-20T06:18:37;15.23;;;6.30;;
11008;SDS011;5557;51.670;7.788;2022-09-20T06:24:34;6.30;;;5.47;;
11008;SDS011;5557;51.670;7.788;2022-09-20T06:27:17;10.67;;;5.90;;
11008;SDS011;5557;51.670;7.788;2022-09-20T06:29:52;11.03;;;6.67;;
11008;SDS011;5557;51.670;7.788;2022-09-20T06:32:23;16.83;;;5.53;;
11008;SDS011;5557;51.670;7.788;2022-09-20T06:34:51;22.40;;;6.90;;
11008;SDS011;5557;51.670;7.788;2022-09-20T06:37:40;11.47;;;6.50;;
11008;SDS011;5557;51.670;7.788;2022-09-20T06:40:45;18.23;;;6.33;;
11008;SDS011;5557;51.670;7.788;2022-09-20T06:43:34;11.10;;;5.70;;
11008;SDS011;5557;51.670;7.788;2022-09-20T06:46:05;19.40;;;7.40;;
11008;SDS011;5557;51.670;7.788;2022-09-20T06:48:33;18.73;;;5.70;;
11008;SDS011;5557;51.670;7.788;2022-09-20T06:51:00;11.23;;;5.67;;
11008;SDS011;5557;51.670;7.788;2022-09-20T06:53:28;10.33;;;5.40;;
11008;SDS011;5557;51.670;7.788;2022-09-20T06:55:58;20.67;;;6.50;;
11008;SDS011;5557;51.670;7.788;2022-09-20T06:58:26;16.43;;;6.70;;
11008;SDS011;5557;51.670;7.788;2022-09-20T07:00:53;17.07;;;5.50;;
11008;SDS011;5557;51.670;7.788;2022-09-20T07:03:20;11.83;;;5.40;;
11008;SDS011;5557;51.670;7.788;2022-09-20T07:05:47;8.83;;;4.10;;
11008;SDS011;5557;51.670;7.788;2022-09-20T07:08:15;8.57;;;4.27;;
11008;SDS011;5557;51.670;7.788;2022-09-20T07:10:42;6.60;;;3.20;;
11008;SDS011;5557;51.670;7.788;2022-09-20T07:13:09;10.50;;;4.17;;
11008;SDS011;5557;51.670;7.788;2022-09-20T07:15:38;10.40;;;3.90;;
11008;SDS011;5557;51.670;7.788;2022-09-20T07:18:05;14.73;;;3.60;;
11008;SDS011;5557;51.670;7.788;2022-09-20T07:20:33;9.43;;;4.20;;
11008;SDS011;5557;51.670;7.788;2022-09-20T07:23:00;5.50;;;3.63;;
11008;SDS011;5557;51.670;7.788;2022-09-20T07:25:28;8.33;;;3.60;;
11008;SDS011;5557;51.670;7.788;2022-09-20T07:27:56;6.90;;;2.83;;
11008;SDS011;5557;51.670;7.788;2022-09-20T07:30:23;6.83;;;2.67;;
11008;SDS011;5557;51.670;7.788;2022-09-20T07:32:50;2.97;;;2.70;;
11008;SDS011;5557;51.670;7.788;2022-09-20T07:35:17;12.97;;;2.67;;
11008;SDS011;5557;51.670;7.788;2022-09-20T07:37:44;3.57;;;2.30;;
11008;SDS011;5557;51.670;7.788;2022-09-20T07:40:14;4.33;;;2.27;;
11008;SDS011;5557;51.670;7.788;2022-09-20T07:42:44;5.30;;;2.40;;
11008;SDS011;5557;51.670;7.788;2022-09-20T07:45:11;7.77;;;2.20;;
11008;SDS011;5557;51.670;7.788;2022-09-20T07:47:38;9.33;;;2.60;;
11008;SDS011;5557;51.670;7.788;2022-09-20T07:50:07;10.10;;;2.17;;
11008;SDS011;5557;51.670;7.788;2022-09-20T07:52:36;9.00;;;2.67;;
11008;SDS011;5557;51.670;7.788;2022-09-20T07:55:04;3.73;;;2.73;;
11008;SDS011;5557;51.670;7.788;2022-09-20T07:57:33;3.77;;;2.97;;
11008;SDS011;5557;51.670;7.788;2022-09-20T08:00:06;4.60;;;1.60;;
11008;SDS011;5557;51.670;7.788;2022-09-20T08:02:34;4.07;;;2.20;;
11008;SDS011;5557;51.670;7.788;2022-09-20T08:05:01;4.17;;;1.63;;
11008;SDS011;5557;51.670;7.788;2022-09-20T08:07:30;7.27;;;1.87;;
11008;SDS011;5557;51.670;7.788;2022-09-20T08:09:56;6.13;;;1.83;;
11008;SDS011;5557;51.670;7.788;2022-09-20T08:12:23;4.10;;;1.43;;
11008;SDS011;5557;51.670;7.788;2022-09-20T08:15:11;3.10;;;1.20;;
11008;SDS011;5557;51.670;7.788;2022-09-20T08:17:38;8.70;;;1.40;;
11008;SDS011;5557;51.670;7.788;2022-09-20T08:20:06;2.67;;;1.10;;
11008;SDS011;5557;51.670;7.788;2022-09-20T08:22:36;4.10;;;1.13;;
11008;SDS011;5557;51.670;7.788;2022-09-20T08:25:07;4.80;;;1.33;;
11008;SDS011;5557;51.670;7.788;2022-09-20T08:27:34;5.43;;;1.57;;
11008;SDS011;5557;51.670;7.788;2022-09-20T08:30:03;4.17;;;1.00;;
11008;SDS011;5557;51.670;7.788;2022-09-20T08:32:31;5.23;;;1.10;;
11008;SDS011;5557;51.670;7.788;2022-09-20T08:34:58;2.83;;;1.53;;
11008;SDS011;5557;51.670;7.788;2022-09-20T08:37:25;4.90;;;0.90;;
11008;SDS011;5557;51.670;7.788;2022-09-20T08:39:52;2.47;;;0.90;;
11008;SDS011;5557;51.670;7.788;2022-09-20T08:42:27;2.37;;;0.70;;
11008;SDS011;5557;51.670;7.788;2022-09-20T08:45:06;3.50;;;0.80;;
11008;SDS011;5557;51.670;7.788;2022-09-20T08:47:55;8.40;;;0.73;;
11008;SDS011;5557;51.670;7.788;2022-09-20T08:50:25;2.33;;;0.90;;
11008;SDS011;5557;51.670;7.788;2022-09-20T08:52:53;2.30;;;0.70;;
11008;SDS011;5557;51.670;7.788;2022-09-20T08:55:26;1.80;;;1.03;;
11008;SDS011;5557;51.670;7.788;2022-09-20T08:58:02;4.23;;;1.07;;
11008;SDS011;5557;51.670;7.788;2022-09-20T09:00:34;3.23;;;1.00;;
11008;SDS011;5557;51.670;7.788;2022-09-20T09:03:03;11.37;;;0.90;;
11008;SDS011;5557;51.670;7.788;2022-09-20T09:05:48;3.10;;;0.90;;
11008;SDS011;5557;51.670;7.788;2022-09-20T09:08:21;4.70;;;0.80;;
11008;SDS011;5557;51.670;7.788;2022-09-20T09:11:13;2.20;;;0.97;;
11008;SDS011;5557;51.670;7.788;2022-09-20T09:17:14;4.23;;;1.10;;
11008;SDS011;5557;51.670;7.788;2022-09-20T09:19:52;7.20;;;2.60;;
11008;SDS011;5557;51.670;7.788;2022-09-20T09:22:27;8.40;;;1.23;;
11008;SDS011;5557;51.670;7.788;2022-09-20T09:25:05;5.83;;;1.60;;
11008;SDS011;5557;51.670;7.788;2022-09-20T09:27:56;6.37;;;1.30;;
11008;SDS011;5557;51.670;7.788;2022-09-20T09:30:45;3.27;;;1.50;;
11008;SDS011;5557;51.670;7.788;2022-09-20T09:38:50;5.93;;;1.53;;
11008;SDS011;5557;51.670;7.788;2022-09-20T09:41:44;5.97;;;2.00;;
11008;SDS011;5557;51.670;7.788;2022-09-20T09:44:18;2.10;;;0.90;;
11008;SDS011;5557;51.670;7.788;2022-09-20T09:46:47;3.50;;;1.40;;
11008;SDS011;5557;51.670;7.788;2022-09-20T09:49:22;3.17;;;1.00;;
11008;SDS011;5557;51.670;7.788;2022-09-20T09:54:50;4.20;;;1.30;;
11008;SDS011;5557;51.670;7.788;2022-09-20T09:57:42;2.80;;;1.27;;
11008;SDS011;5557;51.670;7.788;2022-09-20T10:00:28;2.23;;;0.80;;
11008;SDS011;5557;51.670;7.788;2022-09-20T10:17:23;2.60;;;0.90;;
11008;SDS011;5557;51.670;7.788;2022-09-20T10:20:49;3.57;;;0.80;;
11008;SDS011;5557;51.670;7.788;2022-09-20T10:26:25;6.17;;;1.20;;
11008;SDS011;5557;51.670;7.788;2022-09-20T10:29:19;6.10;;;0.70;;
11008;SDS011;5557;51.670;7.788;2022-09-20T10:35:12;1.90;;;0.90;;
11008;SDS011;5557;51.670;7.788;2022-09-20T10:38:02;5.97;;;1.00;;
11008;SDS011;5557;51.670;7.788;2022-09-20T10:44:46;1.50;;;0.73;;
11008;SDS011;5557;51.670;7.788;2022-09-20T10:50:40;1.90;;;0.67;;
11008;SDS011;5557;51.670;7.788;2022-09-20T10:53:33;4.63;;;0.50;;
11008;SDS011;5557;51.670;7.788;2022-09-20T10:56:41;1.53;;;0.70;;
11008;SDS011;5557;51.670;7.788;2022-09-20T11:08:10;5.07;;;2.10;;
11008;SDS011;5557;51.670;7.788;2022-09-20T11:10:53;3.70;;;1.00;;
11008;SDS011;5557;51.670;7.788;2022-09-20T11:13:26;2.70;;;0.80;;
11008;SDS011;5557;51.670;7.788;2022-09-20T11:16:39;2.10;;;0.70;;
11008;SDS011;5557;51.670;7.788;2022-09-20T11:19:24;6.93;;;1.00;;
11008;SDS011;5557;51.670;7.788;2022-09-20T11:22:18;4.30;;;0.73;;
11008;SDS011;5557;51.670;7.788;2022-09-20T11:24:59;10.43;;;0.87;;
11008;SDS011;5557;51.670;7.788;2022-09-20T11:27:45;10.70;;;3.13;;
11008;SDS011;5557;51.670;7.788;2022-09-20T11:30:19;9.63;;;1.73;;
11008;SDS011;5557;51.670;7.788;2022-09-20T11:33:31;4.43;;;0.80;;
11008;SDS011;5557;51.670;7.788;2022-09-20T11:35:49;2.43;;;0.80;;
11008;SDS011;5557;51.670;7.788;2022-09-20T11:38:20;2.40;;;0.80;;
11008;SDS011;5557;51.670;7.788;2022-09-20T11:41:22;2.57;;;1.10;;
11008;SDS011;5557;51.670;7.788;2022-09-20T11:43:53;3.97;;;1.40;;
11008;SDS011;5557;51.670;7.788;2022-09-20T11:46:26;3.37;;;0.77;;
11008;SDS011;5557;51.670;7.788;2022-09-20T11:52:12;7.20;;;0.80;;
11008;SDS011;5557;51.670;7.788;2022-09-20T11:57:41;4.70;;;0.87;;
11008;SDS011;5557;51.670;7.788;2022-09-20T12:00:09;2.27;;;0.57;;
11008;SDS011;5557;51.670;7.788;2022-09-20T12:02:43;3.77;;;0.80;;
11008;SDS011;5557;51.670;7.788;2022-09-20T12:05:24;3.10;;;0.83;;
11008;SDS011;5557;51.670;7.788;2022-09-20T12:08:21;6.60;;;1.20;;
11008;SDS011;5557;51.670;7.788;2022-09-20T12:11:05;4.33;;;1.03;;
11008;SDS011;5557;51.670;7.788;2022-09-20T12:13:38;2.90;;;0.70;;
11008;SDS011;5557;51.670;7.788;2022-09-20T12:16:07;4.63;;;0.93;;
11008;SDS011;5557;51.670;7.788;2022-09-20T12:18:46;1.07;;;0.50;;
11008;SDS011;5557;51.670;7.788;2022-09-20T12:24:45;2.30;;;0.60;;
11008;SDS011;5557;51.670;7.788;2022-09-20T12:27:54;4.90;;;0.60;;
11008;SDS011;5557;51.670;7.788;2022-09-20T12:30:22;5.47;;;0.60;;
11008;SDS011;5557;51.670;7.788;2022-09-20T12:32:50;1.00;;;0.50;;
11008;SDS011;5557;51.670;7.788;2022-09-20T12:38:26;5.13;;;1.47;;
11008;SDS011;5557;51.670;7.788;2022-09-20T12:41:08;3.67;;;0.90;;
11008;SDS011;5557;51.670;7.788;2022-09-20T12:43:46;3.20;;;0.80;;
11008;SDS011;5557;51.670;7.788;2022-09-20T12:46:41;2.70;;;0.70;;
11008;SDS011;5557;51.670;7.788;2022-09-20T12:49:59;2.30;;;0.80;;
11008;SDS011;5557;51.670;7.788;2022-09-20T12:52:49;3.10;;;0.70;;
11008;SDS011;5557;51.670;7.788;2022-09-20T12:55:42;2.67;;;0.83;;
11008;SDS011;5557;51.670;7.788;2022-09-20T12:58:35;2.03;;;0.70;;
11008;SDS011;5557;51.670;7.788;2022-09-20T13:01:27;1.83;;;0.77;;
11008;SDS011;5557;51.670;7.788;2022-09-20T13:04:37;2.27;;;0.83;;
11008;SDS011;5557;51.670;7.788;2022-09-20T13:10:17;0.90;;;0.40;;
11008;SDS011;5557;51.670;7.788;2022-09-20T13:12:52;2.13;;;0.50;;
11008;SDS011;5557;51.670;7.788;2022-09-20T13:15:24;1.87;;;0.50;;
11008;SDS011;5557;51.670;7.788;2022-09-20T13:17:53;11.23;;;1.93;;
11008;SDS011;5557;51.670;7.788;2022-09-20T13:20:22;2.67;;;0.63;;
11008;SDS011;5557;51.670;7.788;2022-09-20T13:22:53;1.83;;;0.80;;
11008;SDS011;5557;51.670;7.788;2022-09-20T13:25:25;5.37;;;0.60;;
11008;SDS011;5557;51.670;7.788;2022-09-20T13:28:00;2.43;;;0.60;;
11008;SDS011;5557;51.670;7.788;2022-09-20T13:30:35;1.20;;;0.70;;
11008;SDS011;5557;51.670;7.788;2022-09-20T13:36:01;1.53;;;1.00;;
11008;SDS011;5557;51.670;7.788;2022-09-20T13:38:29;6.10;;;1.10;;
11008;SDS011;5557;51.670;7.788;2022-09-20T13:41:02;1.37;;;0.60;;
11008;SDS011;5557;51.670;7.788;2022-09-20T13:43:37;1.80;;;0.60;;
11008;SDS011;5557;51.670;7.788;2022-09-20T13:46:08;5.13;;;0.67;;
11008;SDS011;5557;51.670;7.788;2022-09-20T13:48:37;5.47;;;0.97;;
11008;SDS011;5557;51.670;7.788;2022-09-20T13:51:25;2.20;;;0.83;;
11008;SDS011;5557;51.670;7.788;2022-09-20T13:53:53;1.63;;;0.60;;
11008;SDS011;5557;51.670;7.788;2022-09-20T13:56:44;2.20;;;0.50;;
11008;SDS011;5557;51.670;7.788;2022-09-20T13:59:12;5.20;;;1.30;;
11008;SDS011;5557;51.670;7.788;2022-09-20T14:01:48;1.77;;;0.60;;
11008;SDS011;5557;51.670;7.788;2022-09-20T14:04:19;1.67;;;0.60;;
11008;SDS011;5557;51.670;7.788;2022-09-20T14:06:51;2.87;;;0.70;;
11008;SDS011;5557;51.670;7.788;2022-09-20T14:12:01;3.77;;;0.60;;
11008;SDS011;5557;51.670;7.788;2022-09-20T14:14:29;1.20;;;0.60;;
11008;SDS011;5557;51.670;7.788;2022-09-20T14:16:59;2.73;;;0.67;;
11008;SDS011;5557;51.670;7.788;2022-09-20T14:19:30;2.70;;;0.63;;
11008;SDS011;5557;51.670;7.788;2022-09-20T14:22:11;1.47;;;0.60;;
11008;SDS011;5557;51.670;7.788;2022-09-20T14:24:53;1.90;;;0.70;;
11008;SDS011;5557;51.670;7.788;2022-09-20T14:27:26;1.20;;;0.70;;
11008;SDS011;5557;51.670;7.788;2022-09-20T14:29:56;4.80;;;0.87;;
11008;SDS011;5557;51.670;7.788;2022-09-20T14:32:25;1.77;;;0.80;;
11008;SDS011;5557;51.670;7.788;2022-09-20T14:35:14;2.60;;;0.60;;
11008;SDS011;5557;51.670;7.788;2022-09-20T14:37:51;2.40;;;0.50;;
11008;SDS011;5557;51.670;7.788;2022-09-20T14:40:45;1.10;;;0.67;;
11008;SDS011;5557;51.670;7.788;2022-09-20T14:43:33;6.50;;;0.70;;
11008;SDS011;5557;51.670;7.788;2022-09-20T14:46:05;2.50;;;0.57;;
11008;SDS011;5557;51.670;7.788;2022-09-20T14:48:40;3.30;;;0.80;;
11008;SDS011;5557;51.670;7.788;2022-09-20T14:51:21;2.20;;;0.60;;
11008;SDS011;5557;51.670;7.788;2022-09-20T14:53:51;2.30;;;1.03;;
11008;SDS011;5557;51.670;7.788;2022-09-20T14:56:51;5.13;;;0.63;;
11008;SDS011;5557;51.670;7.788;2022-09-20T14:59:24;3.37;;;0.60;;
11008;SDS011;5557;51.670;7.788;2022-09-20T15:02:03;1.40;;;0.50;;
11008;SDS011;5557;51.670;7.788;2022-09-20T15:04:54;3.27;;;0.63;;
11008;SDS011;5557;51.670;7.788;2022-09-20T15:07:25;5.00;;;0.77;;
11008;SDS011;5557;51.670;7.788;2022-09-20T15:09:52;4.40;;;0.70;;
11008;SDS011;5557;51.670;7.788;2022-09-20T15:12:19;2.00;;;0.70;;
11008;SDS011;5557;51.670;7.788;2022-09-20T15:14:47;3.50;;;0.80;;
11008;SDS011;5557;51.670;7.788;2022-09-20T15:17:15;1.57;;;0.60;;
11008;SDS011;5557;51.670;7.788;2022-09-20T15:19:44;5.13;;;0.90;;
11008;SDS011;5557;51.670;7.788;2022-09-20T15:22:11;1.50;;;0.90;;
11008;SDS011;5557;51.670;7.788;2022-09-20T15:24:39;1.87;;;0.73;;
11008;SDS011;5557;51.670;7.788;2022-09-20T15:27:07;1.53;;;0.70;;
11008;SDS011;5557;51.670;7.788;2022-09-20T15:29:36;0.90;;;0.53;;
11008;SDS011;5557;51.670;7.788;2022-09-20T15:32:03;5.13;;;0.80;;
11008;SDS011;5557;51.670;7.788;2022-09-20T15:34:31;4.97;;;1.10;;
11008;SDS011;5557;51.670;7.788;2022-09-20T15:36:58;2.13;;;0.60;;
11008;SDS011;5557;51.670;7.788;2022-09-20T15:39:25;2.13;;;0.90;;
11008;SDS011;5557;51.670;7.788;2022-09-20T15:41:53;2.30;;;0.87;;
11008;SDS011;5557;51.670;7.788;2022-09-20T15:44:20;2.60;;;1.10;;
11008;SDS011;5557;51.670;7.788;2022-09-20T15:46:49;7.07;;;1.00;;
11008;SDS011;5557;51.670;7.788;2022-09-20T15:49:16;1.47;;;0.70;;
11008;SDS011;5557;51.670;7.788;2022-09-20T15:51:43;6.93;;;1.00;;
11008;SDS011;5557;51.670;7.788;2022-09-20T15:54:11;6.17;;;0.90;;
11008;SDS011;5557;51.670;7.788;2022-09-20T15:56:40;2.73;;;1.17;;
11008;SDS011;5557;51.670;7.788;2022-09-20T15:59:08;4.17;;;1.03;;
11008;SDS011;5557;51.670;7.788;2022-09-20T16:01:37;6.70;;;1.10;;
11008;SDS011;5557;51.670;7.788;2022-09-20T16:04:16;2.97;;;0.80;;
11008;SDS011;5557;51.670;7.788;2022-09-20T16:06:45;3.20;;;1.00;;
11008;SDS011;5557;51.670;7.788;2022-09-20T16:09:14;6.50;;;1.00;;
11008;SDS011;5557;51.670;7.788;2022-09-20T16:11:43;4.13;;;1.00;;
11008;SDS011;5557;51.670;7.788;2022-09-20T16:14:11;1.10;;;0.70;;
11008;SDS011;5557;51.670;7.788;2022-09-20T16:16:38;6.73;;;1.37;;
11008;SDS011;5557;51.670;7.788;2022-09-20T16:19:06;3.23;;;0.70;;
11008;SDS011;5557;51.670;7.788;2022-09-20T16:21:55;5.00;;;1.13;;
11008;SDS011;5557;51.670;7.788;2022-09-20T16:24:25;2.23;;;1.70;;
11008;SDS011;5557;51.670;7.788;2022-09-20T16:27:00;1.97;;;1.20;;
11008;SDS011;5557;51.670;7.788;2022-09-20T16:29:29;2.80;;;1.13;;
11008;SDS011;5557;51.670;7.788;2022-09-20T16:31:56;9.07;;;1.87;;
11008;SDS011;5557;51.670;7.788;2022-09-20T16:34:25;5.10;;;1.10;;
11008;SDS011;5557;51.670;7.788;2022-09-20T16:37:02;1.47;;;0.70;;
11008;SDS011;5557;51.670;7.788;2022-09-20T16:39:31;2.67;;;1.07;;
11008;SDS011;5557;51.670;7.788;2022-09-20T16:42:03;2.70;;;0.63;;
11008;SDS011;5557;51.670;7.788;2022-09-20T16:44:34;3.03;;;0.87;;
11008;SDS011;5557;51.670;7.788;2022-09-20T16:47:03;5.83;;;1.30;;
11008;SDS011;5557;51.670;7.788;2022-09-20T16:49:35;2.17;;;0.90;;
11008;SDS011;5557;51.670;7.788;2022-09-20T16:52:03;2.40;;;0.97;;
11008;SDS011;5557;51.670;7.788;2022-09-20T16:54:31;1.80;;;1.00;;
11008;SDS011;5557;51.670;7.788;2022-09-20T16:56:59;1.53;;;0.97;;
11008;SDS011;5557;51.670;7.788;2022-09-20T16:59:26;2.10;;;1.20;;
11008;SDS011;5557;51.670;7.788;2022-09-20T17:01:53;2.53;;;1.10;;
11008;SDS011;5557;51.670;7.788;2022-09-20T17:04:21;4.90;;;2.20;;
11008;SDS011;5557;51.670;7.788;2022-09-20T17:06:48;6.23;;;1.90;;
11008;SDS011;5557;51.670;7.788;2022-09-20T17:09:16;6.90;;;1.07;;
11008;SDS011;5557;51.670;7.788;2022-09-20T17:11:44;5.03;;;1.10;;
11008;SDS011;5557;51.670;7.788;2022-09-20T17:14:15;2.33;;;1.07;;
11008;SDS011;5557;51.670;7.788;2022-09-20T17:16:44;5.23;;;1.10;;
11008;SDS011;5557;51.670;7.788;2022-09-20T17:19:14;3.47;;;1.10;;
11008;SDS011;5557;51.670;7.788;2022-09-20T17:21:44;1.70;;;1.10;;
11008;SDS011;5557;51.670;7.788;2022-09-20T17:24:16;4.57;;;2.10;;
11008;SDS011;5557;51.670;7.788;2022-09-20T17:26:47;3.10;;;1.43;;
11008;SDS011;5557;51.670;7.788;2022-09-20T17:29:16;2.17;;;1.70;;
11008;SDS011;5557;51.670;7.788;2022-09-20T17:31:45;8.73;;;2.50;;
11008;SDS011;5557;51.670;7.788;2022-09-20T17:34:20;1.73;;;1.50;;
11008;SDS011;5557;51.670;7.788;2022-09-20T17:36:47;2.47;;;1.20;;
11008;SDS011;5557;51.670;7.788;2022-09-20T17:39:15;2.67;;;1.33;;
11008;SDS011;5557;51.670;7.788;2022-09-20T17:41:44;11.10;;;1.50;;
11008;SDS011;5557;51.670;7.788;2022-09-20T17:44:13;4.93;;;1.90;;
11008;SDS011;5557;51.670;7.788;2022-09-20T17:46:41;5.67;;;1.77;;
11008;SDS011;5557;51.670;7.788;2022-09-20T17:49:11;2.40;;;1.70;;
11008;SDS011;5557;51.670;7.788;2022-09-20T17:51:43;3.93;;;2.40;;
11008;SDS011;5557;51.670;7.788;2022-09-20T17:54:14;5.00;;;2.13;;
11008;SDS011;5557;51.670;7.788;2022-09-20T17:56:42;4.37;;;2.57;;
11008;SDS011;5557;51.670;7.788;2022-09-20T17:59:12;4.93;;;2.47;;
11008;SDS011;5557;51.670;7.788;2022-09-20T18:01:41;4.37;;;2.40;;
11008;SDS011;5557;51.670;7.788;2022-09-20T18:04:10;2.60;;;2.40;;
11008;SDS011;5557;51.670;7.788;2022-09-20T18:06:43;13.07;;;3.67;;
11008;SDS011;5557;51.670;7.788;2022-09-20T18:09:16;2.30;;;2.20;;
11008;SDS011;5557;51.670;7.788;2022-09-20T18:11:45;3.50;;;2.30;;
11008;SDS011;5557;51.670;7.788;2022-09-20T18:14:15;2.50;;;2.30;;
11008;SDS011;5557;51.670;7.788;2022-09-20T18:16:44;3.57;;;3.23;;
11008;SDS011;5557;51.670;7.788;2022-09-20T18:19:14;12.13;;;2.80;;
11008;SDS011;5557;51.670;7.788;2022-09-20T18:21:42;8.23;;;2.27;;
11008;SDS011;5557;51.670;7.788;2022-09-20T18:24:10;11.30;;;2.97;;
11008;SDS011;5557;51.670;7.788;2022-09-20T18:26:37;3.10;;;2.60;;
11008;SDS011;5557;51.670;7.788;2022-09-20T18:29:08;3.70;;;3.50;;
11008;SDS011;5557;51.670;7.788;2022-09-20T18:31:38;23.03;;;11.23;;
11008;SDS011;5557;51.670;7.788;2022-09-20T18:34:23;38.30;;;15.50;;
11008;SDS011;5557;51.670;7.788;2022-09-20T18:36:57;13.37;;;3.93;;
11008;SDS011;5557;51.670;7.788;2022-09-20T18:39:28;12.70;;;5.90;;
11008;SDS011;5557;51.670;7.788;2022-09-20T18:42:00;4.10;;;2.87;;
11008;SDS011;5557;51.670;7.788;2022-09-20T18:44:28;4.53;;;3.77;;
11008;SDS011;5557;51.670;7.788;2022-09-20T18:46:59;4.93;;;3.53;;
11008;SDS011;5557;51.670;7.788;2022-09-20T18:49:28;10.30;;;3.10;;
11008;SDS011;5557;51.670;7.788;2022-09-20T18:51:55;6.10;;;3.27;;
11008;SDS011;5557;51.670;7.788;2022-09-20T18:54:23;9.13;;;5.10;;
11008;SDS011;5557;51.670;7.788;2022-09-20T18:56:50;6.87;;;3.30;;
11008;SDS011;5557;51.670;7.788;2022-09-20T18:59:18;4.73;;;2.87;;
11008;SDS011;5557;51.670;7.788;2022-09-20T19:01:58;4.43;;;4.03;;
11008;SDS011;5557;51.670;7.788;2022-09-20T19:05:41;15.53;;;5.90;;
11008;SDS011;5557;51.670;7.788;2022-09-20T19:08:10;9.23;;;3.83;;
11008;SDS011;5557;51.670;7.788;2022-09-20T19:11:03;11.03;;;5.70;;
11008;SDS011;5557;51.670;7.788;2022-09-20T19:13:41;6.83;;;4.63;;
11008;SDS011;5557;51.670;7.788;2022-09-20T19:16:20;7.70;;;4.60;;
11008;SDS011;5557;51.670;7.788;2022-09-20T19:19:12;19.53;;;5.90;;
11008;SDS011;5557;51.670;7.788;2022-09-20T19:22:14;9.00;;;5.80;;
11008;SDS011;5557;51.670;7.788;2022-09-20T19:25:19;11.63;;;7.53;;
11008;SDS011;5557;51.670;7.788;2022-09-20T19:27:53;8.37;;;6.60;;
11008;SDS011;5557;51.670;7.788;2022-09-20T19:30:21;12.30;;;7.80;;
11008;SDS011;5557;51.670;7.788;2022-09-20T19:32:49;21.70;;;6.80;;
11008;SDS011;5557;51.670;7.788;2022-09-20T19:35:18;6.67;;;5.70;;
11008;SDS011;5557;51.670;7.788;2022-09-20T19:37:54;12.87;;;6.67;;
11008;SDS011;5557;51.670;7.788;2022-09-20T19:43:04;6.10;;;5.50;;